Latest Coastal Weather Observations for Aireys Inlet

IDV60701

Issued at 7:31 am EDT Sunday 26 January 2020 (issued every 10 minutes, with the page automatically refreshed every 10 minutes)

About coastal observations | Map of coastal stations | Coastal observations for VIC | Marine services | Other Formats
Station Details ID: 090180 Name: AIREYS INLET Lat: -38.46 Lon: 144.09 Height: 105.0 m
Data from the previous 72 hours. | See also: Recent months at Aireys Inlet
Date/Time
EDT
Wind Sea
Height
m
Swell Vis
km
Cloud Weather Temp
°C
Press
hPa
Rain since
9am
mm
Dir  Spd
kts
Gust
kts
Height
m
Period
s
Dir
26/07:30am WNW 9 11 - - - - - - - 17.0 - 0.0
26/07:00am WNW 8 10 - - - - - - - 16.4 - 0.0
26/06:30am NW 6 8 - - - - - - - 16.0 - 0.0
26/06:00am WNW 5 7 - - - - - - - 15.7 - 0.0
26/05:30am NW 6 7 - - - - - - - 15.8 - 0.0
26/05:00am NW 6 8 - - - - - - - 15.8 - 0.0
26/04:30am NW 6 6 - - - - - - - 15.5 - 0.0
26/04:00am WNW 6 8 - - - - - - - 15.8 - 0.0
26/03:30am NW 7 8 - - - - - - - 15.9 - 0.0
26/03:00am NNW 6 8 - - - - - - - 15.3 - 0.0
26/02:30am NW 6 7 - - - - - - - 15.0 - 0.0
26/02:00am NNW 6 7 - - - - - - - 14.9 - 0.0
26/01:30am NNE 6 8 - - - - - - - 15.1 - 0.0
26/01:00am NNE 6 9 - - - - - - - 15.4 - 0.0
26/12:30am NNE 7 11 - - - - - - - 15.8 - 0.0
26/12:00am NNE 6 8 - - - - - - - 15.8 - 0.0
 
Date/Time
EDT
Wind Sea
Height
m
Swell Vis
km
Cloud Weather Temp
°C
Press
hPa
Rain since
9am
mm
Dir  Spd
kts
Gust
kts
Height
m
Period
s
Dir
25/11:30pm NNW 5 7 - - - - - - - 16.0 - 0.0
25/11:00pm NNE 5 6 - - - - - - - 16.1 - 0.0
25/10:30pm N 4 5 - - - - - - - 16.8 - 0.0
25/10:00pm NW 4 7 - - - - - - - 17.1 - 0.0
25/09:30pm NNE 3 5 - - - - - - - 17.4 - 0.0
25/09:00pm NE 3 5 - - - - - - - 17.9 - 0.0
25/08:30pm ENE 3 5 - - - - - - - 18.1 - 0.0
25/08:00pm ENE 6 8 - - - - - - - 18.1 - 0.0
25/07:30pm NE 4 6 - - - - - - - 20.0 - 0.0
25/07:00pm NE 5 7 - - - - - - - 21.1 - 0.0
25/06:30pm E 3 5 - - - - - - - 21.4 - 0.0
25/06:00pm E 2 5 - - - - - - - 21.5 - 0.0
25/05:30pm ENE 3 4 - - - - - - - 19.8 - 0.0
25/05:00pm ESE 4 6 - - - - - - - 20.7 - 0.0
25/04:30pm ESE 3 5 - - - - - - - 20.7 - 0.0
25/04:00pm SE 5 10 - - - - - - - 20.8 - 0.0
25/03:30pm SE 6 10 - - - - - - - 21.9 - 0.0
25/03:00pm SSE 6 9 - - - - - - - 21.9 - 0.0
25/02:30pm SSE 5 9 - - - - - - - 23.7 - 0.0
25/02:00pm SSE 7 12 - - - - - - - 23.8 - 0.0
25/01:30pm S 7 10 - - - - - - - 24.3 - 0.0
25/01:00pm W 10 16 - - - - - - - 24.1 - 0.0
25/12:30pm NW 9 16 - - - - - - - 22.7 - 0.0
25/12:00pm NNW 9 15 - - - - - - - 21.5 - 0.0
25/11:30am WNW 12 19 - - - - - - - 21.3 - 0.0
25/11:00am WNW 7 14 - - - - - - - 21.6 - 0.0
25/10:30am NNW 8 14 - - - - - - - 20.9 - 0.0
25/10:00am NW 7 14 - - - - - - - 19.6 - 0.0
25/09:30am WNW 8 13 - - - - - - - 18.8 - 0.0
25/09:00am W 7 12 - - - - - - - 18.1 - 0.0
25/08:30am W 6 9 - - - - - - - 17.1 - 0.0
25/08:00am WNW 5 7 - - - - - - - 16.3 - 0.0
25/07:30am N 3 4 - - - - - - - 14.5 - 0.0
25/07:00am NNW 4 6 - - - - - - - 14.0 - 0.0
25/06:30am N 4 5 - - - - - - - 13.6 - 0.0
25/06:00am NNW 5 8 - - - - - - - 14.8 - 0.0
25/05:30am NW 6 8 - - - - - - - 14.9 - 0.0
25/05:00am NW 7 10 - - - - - - - 15.4 - 0.0
25/04:30am NNW 6 8 - - - - - - - 14.8 - 0.0
25/04:00am NNW 7 8 - - - - - - - 14.3 - 0.0
25/03:30am NNW 7 9 - - - - - - - 14.9 - 0.0
25/03:00am NW 8 11 - - - - - - - 15.0 - 0.0
25/02:30am NW 6 8 - - - - - - - 15.0 - 0.0
25/02:00am NW 10 12 - - - - - - - 15.9 - 0.0
25/01:30am NW 8 10 - - - - - - - 15.9 - 0.0
25/01:00am NW 7 10 - - - - - - - 16.0 - 0.0
25/12:30am NW 8 10 - - - - - - - 16.0 - 0.0
25/12:00am NNW 5 9 - - - - - - - 15.9 - 0.0
 
Date/Time
EDT
Wind Sea
Height
m
Swell Vis
km
Cloud Weather Temp
°C
Press
hPa
Rain since
9am
mm
Dir  Spd
kts
Gust
kts
Height
m
Period
s
Dir
24/11:30pm NW 5 6 - - - - - - - 16.5 - 0.0
24/11:00pm WNW 4 6 - - - - - - - 17.1 - 0.0
24/10:30pm NW 4 5 - - - - - - - 16.6 - 0.0
24/10:00pm NNW 3 3 - - - - - - - 16.5 - 0.0
24/09:30pm NE 1 2 - - - - - - - 16.9 - 0.0
24/09:00pm ENE 2 3 - - - - - - - 17.1 - 0.0
24/08:30pm E 2 3 - - - - - - - 17.4 - 0.0
24/08:00pm ESE 5 9 - - - - - - - 18.1 - 0.0
24/07:30pm S 6 13 - - - - - - - 19.4 - 0.0
24/07:00pm W 8 12 - - - - - - - 21.2 - 0.0
24/06:30pm WNW 10 16 - - - - - - - 21.3 - 0.0
24/06:00pm W 8 13 - - - - - - - 21.7 - 0.0
24/05:30pm NW 11 17 - - - - - - - 23.2 - 0.0
24/05:00pm WNW 11 19 - - - - - - - 22.1 - 0.0
24/04:30pm WNW 14 21 - - - - - - - 21.7 - 0.0
24/04:16pm NW 15 26 - - - - - - - 22.1 - 0.0
24/04:00pm NW 12 19 - - - - - - - 22.6 - 0.0
24/03:30pm NW 11 19 - - - - - - - 22.7 - 0.0
24/03:00pm WNW 14 23 - - - - - - - 21.8 - 0.0
24/02:52pm W 16 26 - - - - - - - 21.0 - 0.0
24/02:50pm W 17 26 - - - - - - - 20.9 - 0.0
24/02:30pm WNW 10 16 - - - - - - - 20.9 - 0.0
24/02:00pm WNW 9 17 - - - - - - - 19.8 - 0.0
24/01:30pm WNW 9 15 - - - - - - - 19.3 - 0.0
24/01:00pm NW 13 21 - - - - - - - 18.8 - 0.0
24/12:30pm NW 11 20 - - - - - - - 18.8 - 0.0
24/12:00pm WNW 12 18 - - - - - - - 17.6 - 0.0
24/11:30am NW 12 21 - - - - - - - 17.1 - 0.0
24/11:00am NW 12 19 - - - - - - - 18.0 - 0.0
24/10:56am NW 15 25 - - - - - - - 17.3 - 0.0
24/10:30am NW 16 25 - - - - - - - 16.2 - 0.0
24/10:00am WNW 10 19 - - - - - - - 15.8 - 0.0
24/09:30am NW 10 17 - - - - - - - 15.8 - 0.0
24/09:00am NW 8 14 - - - - - - - 14.5 - 2.0
24/08:30am NNW 6 9 - - - - - - - 13.2 - 2.0
24/08:00am NNW 8 13 - - - - - - - 12.4 - 2.0
24/07:30am NW 8 13 - - - - - - - 12.0 - 2.0
24/07:00am WNW 8 11 - - - - - - - 11.7 - 2.0
24/06:30am WNW 5 8 - - - - - - - 11.6 - 2.0
24/06:00am WNW 7 13 - - - - - - - 11.6 - 2.0
24/05:30am W 7 12 - - - - - - - 11.6 - 2.0
24/05:00am NW 8 11 - - - - - - - 11.6 - 2.0
24/04:30am NW 10 15 - - - - - - - 11.8 - 2.0
24/04:00am NW 10 15 - - - - - - - 11.8 - 2.0
24/03:30am NW 9 14 - - - - - - - 11.6 - 2.0
24/03:00am NW 9 15 - - - - - - - 11.6 - 2.0
24/02:30am NW 13 22 - - - - - - - 11.9 - 2.0
24/02:00am NW 18 26 - - - - - - - 12.3 - 2.0
24/01:34am NW 18 28 - - - - - - - 12.1 - 2.0
24/01:30am NW 19 28 - - - - - - - 12.4 - 2.0
24/01:00am NW 20 25 - - - - - - - 12.3 - 2.0
24/12:30am NW 14 22 - - - - - - - 12.6 - 2.0
24/12:00am WNW 13 18 - - - - - - - 12.7 - 2.0
 
Date/Time
EDT
Wind Sea
Height
m
Swell Vis
km
Cloud Weather Temp
°C
Press
hPa
Rain since
9am
mm
Dir  Spd
kts
Gust
kts
Height
m
Period
s
Dir
23/11:30pm WNW 12 16 - - - - - - - 12.9 - 2.0
23/11:00pm WNW 11 16 - - - - - - - 13.1 - 2.0
23/10:30pm WNW 11 18 - - - - - - - 13.2 - 2.0
23/10:00pm WNW 9 14 - - - - - - - 13.5 - 2.0
23/09:30pm WNW 8 13 - - - - - - - 13.8 - 2.0
23/09:00pm W 8 13 - - - - - - - 14.1 - 2.0
23/08:30pm W 9 17 - - - - - - - 14.8 - 2.0
23/08:00pm W 13 20 - - - - - - - 15.4 - 2.0
23/07:30pm W 15 22 - - - - - - - 16.4 - 2.0
23/07:09pm W 15 26 - - - - - - - 16.8 - 2.0
23/07:00pm W 12 20 - - - - - - - 17.2 - 2.0
23/06:37pm W 16 28 - - - - - - - 17.1 - 2.0
23/06:30pm W 13 20 - - - - - - - 17.4 - 2.0
23/06:00pm W 15 25 - - - - - - - 17.1 - 2.0
23/05:30pm WNW 15 26 - - - - - - - 16.7 - 2.0
23/05:13pm W 19 31 - - - - - - - 16.3 - 2.0
23/05:00pm WNW 14 23 - - - - - - - 15.8 - 2.0
23/04:30pm WNW 19 30 - - - - - - - 17.9 - 2.0
23/04:00pm WNW 20 31 - - - - - - - 17.4 - 2.0
23/03:51pm WNW 17 28 - - - - - - - 17.4 - 2.0
23/03:30pm W 14 26 - - - - - - - 18.1 - 2.0
23/03:06pm W 18 28 - - - - - - - 17.4 - 2.0
23/03:00pm WNW 18 27 - - - - - - - 18.0 - 2.0
23/02:32pm W 16 27 - - - - - - - 17.8 - 2.0
23/02:30pm W 17 27 - - - - - - - 17.6 - 2.0
23/02:15pm WNW 19 33 - - - - - - - 19.1 - 2.0
23/02:00pm NW 19 34 - - - - - - - 18.1 - 2.0
23/01:49pm NW 22 38 - - - - - - - 17.9 - 2.0
23/01:30pm NW 15 25 - - - - - - - 17.1 - 2.0
23/01:04pm NW 18 30 - - - - - - - 16.3 - 2.0
23/01:00pm NW 17 23 - - - - - - - 16.2 - 2.0
23/12:30pm NW 14 23 - - - - - - - 15.5 - 2.0
23/12:10pm NW 15 27 - - - - - - - 15.2 - 2.0
23/12:00pm NW 12 21 - - - - - - Recent precip. 15.2 - 2.0
23/11:30am NW 17 29 - - - - - - - 14.0 - 1.8
23/11:16am NW 15 27 - - - - - - - 14.2 - 1.6
23/11:00am NNW 10 17 - - - - - - - 14.0 - 1.4
23/10:32am NNW 14 27 - - - - - - - 14.8 - 0.0
23/10:30am NNW 12 21 - - - - - - - 14.7 - 0.0
23/10:00am N 10 17 - - - - - - - 13.8 - 0.0
23/09:30am N 10 16 - - - - - - - 13.1 - 0.0
23/09:00am NNW 11 15 - - - - - - - 12.6 - 32.0
23/08:30am NNW 10 13 - - - - - - - 12.6 - -
23/08:00am NNW 8 13 - - - - - - - 11.7 - -

Other formats

Comma delimited format used in spreadsheet applications
http://www.bom.gov.au/fwo/IDV60701/IDV60701.94846.axf

JavaScript Object Notation format (JSON) in row-major order
http://www.bom.gov.au/fwo/IDV60701/IDV60701.94846.json

Data quality

Most of these data are generated automatically and are frequently updated. Quality checks on data are not normally performed. It is possible for incorrect values to appear. Refer to information at About Latest Weather Observations and please check the disclaimer before using these data.